Saint Johnsbury, Vermont
Current Conditions -  °F | °C
As of 2:35 PM on Thursday 23 Oct 2014 (Local Time) from KCDA Reporting Station
Overcast Overcast  
Wind Chill:   Ceiling: 2100
Heat Index:   Visibility: 10mi
Dew Point:   Wind: 9mph
Humidity: 85%   Direction: 310°NW
Pressure: 29.87"   Gusts: NA
Location:  44.42°N, 72.01°W
Report Text: KCDA 231835Z AUTO 31008KT 10SM BKN021 BKN026 OVC033 09/06 A2987 RMK AO2 T00860062
Loading
Personal Weather Stations






























Interactive Weather Map New forecast layout! Learn more

10-Day Weather Forecast

Advertisements
Track Severe Weather on mobile